Gentle Leader — C6WY9 — position and weather

sailwx.info

Track history (hours):
 
Tides and Currents Weather Stations Pressure Air Temp Water Temp Dewpoint Dewpoint Depression Visibility Wind Speed Wind Dir Waves Ship Positions

Gentle Leader

Last reported at 2017-May-18 10:40 UTC. Time now 2017-May-23 08:43 UTC.
Position N 34°51' E 139°42'.

Length 200 m; draft 8.6 m.

Type: Cargo ship. MMSI: 311003300.

Date/timePositionNaut miles runAvg speedWind from/ knotsBaromVisibWave heightAir tempDewpointWater temp
2017-May-18 10:40N 34°51' E 139°42'215.7
2017-May-18 10:30N 34°53' E 139°41'714.8
2017-May-18 10:00N 35°01' E 139°42'815.5
2017-May-18 09:30N 35°08' E 139°44'611.4
2017-May-18 09:00N 35°14' E 139°46'611.9
2017-May-18 08:30N 35°19' E 139°43'713.4
2017-May-18 08:01N 35°26' E 139°43'2 4.4
2017-May-18 07:30N 35°28' E 139°41'0 0.0
2017-May-18 07:00N 35°28' E 139°41'0 0.0
2017-May-18 06:30N 35°28' E 139°41'0 0.0
2017-May-18 06:00N 35°28' E 139°41'0 0.0
2017-May-18 05:30N 35°28' E 139°41'0 0.0
2017-May-18 05:00N 35°28' E 139°41'0 0.0
2017-May-18 04:30N 35°28' E 139°41'0 0.0
2017-May-18 04:00N 35°28' E 139°41'0 0.0
2017-May-18 03:30N 35°28' E 139°41'0 0.0
2017-May-18 03:00N 35°28' E 139°41'0 0.0
2017-May-18 02:30N 35°28' E 139°41'0 0.0
2017-May-18 02:00N 35°28' E 139°41'0 0.0
2017-May-18 01:30N 35°28' E 139°41'0 0.0
2017-May-18 01:00N 35°28' E 139°41'0 0.0
2017-May-18 00:30N 35°28' E 139°41'0 0.0
2017-May-18 00:00N 35°28' E 139°41'0 0.0
2017-May-17 23:30N 35°28' E 139°41'0 0.0
2017-May-17 23:00N 35°28' E 139°41'0 0.0
2017-May-17 22:30N 35°28' E 139°41'0 0.2
2017-May-17 22:00N 35°28' E 139°41'2 3.4
2017-May-17 21:31N 35°27' E 139°43'4 8.9
2017-May-17 21:00N 35°23' E 139°46'611.1
2017-May-17 20:30N 35°17' E 139°45'611.5
2017-May-17 20:00N 35°11' E 139°47'4 8.4
2017-May-17 19:29N 35°07' E 139°46'5 9.7
2017-May-17 19:00N 35°03' E 139°44'  
2017-May-09 02:59N 01°16' E 104°05'4 1.0
2017-May-08 23:23N 01°17' E 104°02'0 0.0
2017-May-08 22:44N 01°17' E 104°02'0 0.0
2017-May-08 20:20N 01°17' E 104°02'0 0.0
2017-May-08 19:53N 01°17' E 104°02'0 0.0
2017-May-08 19:29N 01°17' E 104°02'0 0.0
2017-May-08 18:59N 01°17' E 104°02'0 0.1
2017-May-08 17:41N 01°17' E 104°02'0 0.0
2017-May-08 17:29N 01°17' E 104°02'0 0.1
2017-May-08 16:53N 01°17' E 104°02'0 0.1
2017-May-08 16:14N 01°17' E 104°02'0 0.0
2017-May-08 15:05N 01°17' E 104°02'0 0.0
2017-May-08 14:44N 01°17' E 104°02'1 0.9
2017-May-08 14:00N 01°17' E 104°01'4 8.6
2017-May-08 13:30N 01°15' E 103°57'3 5.7
2017-May-08 13:00N 01°13' E 103°55'4 8.4
2017-May-08 12:29N 01°11' E 103°51'4 7.7
2017-May-08 12:00N 01°09' E 103°48'4 7.6
2017-May-08 11:30N 01°07' E 103°45'4 7.9
2017-May-08 11:00N 01°04' E 103°42'  
Track history (hours):
 
Tides and Currents Weather Stations Pressure Air Temp Water Temp Dewpoint Dewpoint Depression Visibility Wind Speed Wind Dir Waves Ship Positions

Gentle Leader

Last reported at 2017-May-18 10:40 UTC. Time now 2017-May-23 08:43 UTC.
Position N 34°51' E 139°42'.

Length 200 m; draft 8.6 m.

Type: Cargo ship. MMSI: 311003300.

Date/timePositionNaut miles runAvg speedWind from/ knotsBaromVisibWave heightAir tempDewpointWater temp
2017-May-18 10:40N 34°51' E 139°42'215.7
2017-May-18 10:30N 34°53' E 139°41'714.8
2017-May-18 10:00N 35°01' E 139°42'815.5
2017-May-18 09:30N 35°08' E 139°44'611.4
2017-May-18 09:00N 35°14' E 139°46'611.9
2017-May-18 08:30N 35°19' E 139°43'713.4
2017-May-18 08:01N 35°26' E 139°43'2 4.4
2017-May-18 07:30N 35°28' E 139°41'0 0.0
2017-May-18 07:00N 35°28' E 139°41'0 0.0
2017-May-18 06:30N 35°28' E 139°41'0 0.0
2017-May-18 06:00N 35°28' E 139°41'0 0.0
2017-May-18 05:30N 35°28' E 139°41'0 0.0
2017-May-18 05:00N 35°28' E 139°41'0 0.0
2017-May-18 04:30N 35°28' E 139°41'0 0.0
2017-May-18 04:00N 35°28' E 139°41'0 0.0
2017-May-18 03:30N 35°28' E 139°41'0 0.0
2017-May-18 03:00N 35°28' E 139°41'0 0.0
2017-May-18 02:30N 35°28' E 139°41'0 0.0
2017-May-18 02:00N 35°28' E 139°41'0 0.0
2017-May-18 01:30N 35°28' E 139°41'0 0.0
2017-May-18 01:00N 35°28' E 139°41'0 0.0
2017-May-18 00:30N 35°28' E 139°41'0 0.0
2017-May-18 00:00N 35°28' E 139°41'0 0.0
2017-May-17 23:30N 35°28' E 139°41'0 0.0
2017-May-17 23:00N 35°28' E 139°41'0 0.0
2017-May-17 22:30N 35°28' E 139°41'0 0.2
2017-May-17 22:00N 35°28' E 139°41'2 3.4
2017-May-17 21:31N 35°27' E 139°43'4 8.9
2017-May-17 21:00N 35°23' E 139°46'611.1
2017-May-17 20:30N 35°17' E 139°45'611.5
2017-May-17 20:00N 35°11' E 139°47'4 8.4
2017-May-17 19:29N 35°07' E 139°46'5 9.7
2017-May-17 19:00N 35°03' E 139°44'  
2017-May-09 02:59N 01°16' E 104°05'4 1.0
2017-May-08 23:23N 01°17' E 104°02'0 0.0
2017-May-08 22:44N 01°17' E 104°02'0 0.0
2017-May-08 20:20N 01°17' E 104°02'0 0.0
2017-May-08 19:53N 01°17' E 104°02'0 0.0
2017-May-08 19:29N 01°17' E 104°02'0 0.0
2017-May-08 18:59N 01°17' E 104°02'0 0.1
2017-May-08 17:41N 01°17' E 104°02'0 0.0
2017-May-08 17:29N 01°17' E 104°02'0 0.1
2017-May-08 16:53N 01°17' E 104°02'0 0.1
2017-May-08 16:14N 01°17' E 104°02'0 0.0
2017-May-08 15:05N 01°17' E 104°02'0 0.0
2017-May-08 14:44N 01°17' E 104°02'1 0.9
2017-May-08 14:00N 01°17' E 104°01'4 8.6
2017-May-08 13:30N 01°15' E 103°57'3 5.7
2017-May-08 13:00N 01°13' E 103°55'4 8.4
2017-May-08 12:29N 01°11' E 103°51'4 7.7
2017-May-08 12:00N 01°09' E 103°48'4 7.6
2017-May-08 11:30N 01°07' E 103°45'4 7.9
2017-May-08 11:00N 01°04' E 103°42'  

Dump ship's entire track history